Christmas Valley, Oregon
Current Conditions -  °F | °C
As of 2:15 AM on Thursday 23 Oct 2014 (Local Time) from KBDN Reporting Station
Light Rain Light Rain  
Wind Chill: 52°   Ceiling: Unl
Heat Index: 52°   Visibility: 8mi
Dew Point: 45°   Wind: 18mph
Humidity: 76%   Direction: 190°S
Pressure: 29.81"   Gusts: NA
Location:  43.24°N, 120.54°W
Report Text: KBDN 230915Z AUTO 19016KT 8SM -RA FEW017 FEW025 SCT032 11/07 A2981 RMK AO2
Loading
Personal Weather Stations






























Interactive Weather Map
Tropical Storm Tracking
New forecast layout! Learn more

10-Day Weather Forecast

Advertisements
Track Severe Weather on mobile